Time;durP1;ratioP1;P1;durP2;ratioP2;P2;SDS_P1;SDS_P2;PMS_P1;PMS_P2;Temp;Humidity;BMP_temperature;BMP_pressure;BME280_temperature;BME280_humidity;BME280_pressure;Samples;Min_cycle;Max_cycle;Signal;HPM_P1;HPM_P2
2023/05/19 00:01:55;;;;;;;;;;;16.60;92.30;;;;;;5077926;28;20285;-86
2023/05/19 00:04:21;;;;;;;;;;;16.60;92.30;;;;;;5095704;28;19916;-86
2023/05/19 00:06:49;;;;;;;;;;;16.60;92.40;;;;;;5080793;28;20327;-86
2023/05/19 00:09:15;;;;;;;;;;;16.60;92.30;;;;;;5098518;28;19911;-86
2023/05/19 00:11:41;;;;;;;;;;;16.60;92.30;;;;;;5101906;28;19914;-86
2023/05/19 00:14:08;;;;;;;;;;;16.60;92.40;;;;;;5099263;28;19904;-86
2023/05/19 00:16:35;;;;;;;;;;;16.60;92.40;;;;;;5080921;28;19910;-86
2023/05/19 00:19:01;;;;;;;;;;;16.50;92.40;;;;;;5104657;28;19927;-85
2023/05/19 00:21:28;;;;;;;;;;;16.50;92.40;;;;;;5078483;28;19904;-86
2023/05/19 00:23:53;;;;;;;;;;;16.50;92.50;;;;;;5099862;28;19961;-85
2023/05/19 00:26:21;;;;;;;;;;;16.40;92.50;;;;;;5107285;28;19908;-84
2023/05/19 00:28:47;;;;;;;;;;;16.30;92.60;;;;;;5100438;28;20262;-88
2023/05/19 00:31:13;;;;;;;;;;;16.30;92.70;;;;;;5081841;28;19904;-87
2023/05/19 00:33:39;;;;;;;;;;;16.20;92.80;;;;;;5099658;28;19949;-85
2023/05/19 00:36:05;;;;;;;;;;;16.20;92.90;;;;;;5100955;28;19911;-86
2023/05/19 00:38:33;;;;;;;;;;;16.10;93.00;;;;;;5098695;28;19908;-88
2023/05/19 00:40:59;;;;;;;;;;;16.10;93.10;;;;;;5081540;28;19904;-86
2023/05/19 00:43:25;;;;;;;;;;;16.00;93.10;;;;;;5081378;28;19915;-84
2023/05/19 00:45:51;;;;;;;;;;;16.00;93.10;;;;;;5098003;28;19912;-86
2023/05/19 00:48:16;;;;;;;;;;;16.00;93.10;;;;;;5099094;28;20277;-89
2023/05/19 00:50:42;;;;;;;;;;;15.90;93.00;;;;;;5085043;28;19903;-88
2023/05/19 00:53:08;;;;;;;;;;;15.90;93.30;;;;;;5101398;28;19942;-87
2023/05/19 00:55:36;;;;;;;;;;;15.80;93.10;;;;;;5078743;28;19904;-86
2023/05/19 00:58:02;;;;;;;;;;;15.70;93.10;;;;;;5108020;28;19911;-87
2023/05/19 01:00:29;;;;;;;;;;;15.70;93.20;;;;;;5109733;28;19904;-86
2023/05/19 01:02:54;;;;;;;;;;;15.70;93.30;;;;;;5114160;28;19899;-88
2023/05/19 01:05:21;;;;;;;;;;;15.60;93.30;;;;;;5119068;28;19931;-84
2023/05/19 01:07:52;;;;;;;;;;;15.70;93.40;;;;;;5102189;28;19949;-85
2023/05/19 01:10:18;;;;;;;;;;;15.70;93.50;;;;;;5091540;28;19912;-87
2023/05/19 01:12:46;;;;;;;;;;;15.60;93.50;;;;;;5093493;28;19908;-85
2023/05/19 01:15:12;;;;;;;;;;;15.60;93.60;;;;;;5098110;28;19918;-85
2023/05/19 01:17:54;;;;;;;;;;;15.50;93.70;;;;;;5092428;28;19905;-86
2023/05/19 01:20:24;;;;;;;;;;;15.50;93.80;;;;;;5089812;28;19908;-88
2023/05/19 01:22:53;;;;;;;;;;;15.40;93.90;;;;;;5092932;28;19912;-90
2023/05/19 01:25:44;;;;;;;;;;;15.40;93.90;;;;;;5086262;28;19912;-85
2023/05/19 01:28:18;;;;;;;;;;;15.30;94.00;;;;;;5084885;28;19900;-88
2023/05/19 01:30:46;;;;;;;;;;;15.20;94.10;;;;;;5099009;28;19910;-89
2023/05/19 01:33:13;;;;;;;;;;;15.20;94.30;;;;;;5085556;28;20375;-88
2023/05/19 01:35:40;;;;;;;;;;;15.10;94.50;;;;;;5099585;28;19904;-88
2023/05/19 01:38:10;;;;;;;;;;;15.00;94.80;;;;;;5073904;28;19908;-87
2023/05/19 01:40:36;;;;;;;;;;;14.90;94.90;;;;;;5085958;28;19962;-88
2023/05/19 01:43:02;;;;;;;;;;;14.70;95.20;;;;;;5091603;28;19904;-89
2023/05/19 01:45:29;;;;;;;;;;;14.60;95.50;;;;;;5093848;28;20045;-88
2023/05/19 01:47:56;;;;;;;;;;;14.50;95.60;;;;;;5117205;28;19907;-89
2023/05/19 01:50:22;;;;;;;;;;;14.40;95.80;;;;;;5090118;28;20361;-87
2023/05/19 01:52:49;;;;;;;;;;;14.20;96.10;;;;;;5085453;28;19936;-86
2023/05/19 01:55:15;;;;;;;;;;;14.10;96.00;;;;;;5101130;28;19912;-90
2023/05/19 01:57:47;;;;;;;;;;;13.90;96.00;;;;;;5099316;28;20219;-85
2023/05/19 02:00:33;;;;;;;;;;;13.70;95.50;;;;;;5115493;28;19908;-86
2023/05/19 02:03:02;;;;;;;;;;;13.60;95.00;;;;;;5099109;28;19911;-87
2023/05/19 02:05:35;;;;;;;;;;;13.40;94.90;;;;;;5097239;28;19957;-87
2023/05/19 02:08:08;;;;;;;;;;;13.30;95.00;;;;;;5081051;28;19920;-83
2023/05/19 02:10:35;;;;;;;;;;;13.20;95.20;;;;;;5094584;28;19904;-87
2023/05/19 02:13:03;;;;;;;;;;;13.10;95.30;;;;;;5081168;28;19948;-85
2023/05/19 02:15:32;;;;;;;;;;;13.00;95.30;;;;;;5096557;28;19904;-86
2023/05/19 02:17:59;;;;;;;;;;;12.90;95.20;;;;;;5058600;28;19999;-86
2023/05/19 02:20:24;;;;;;;;;;;12.80;95.10;;;;;;5059889;28;19974;-90
2023/05/19 02:22:51;;;;;;;;;;;12.80;95.00;;;;;;5059665;28;20064;-84
2023/05/19 02:25:18;;;;;;;;;;;12.70;94.80;;;;;;5057653;28;19952;-83
2023/05/19 02:27:44;;;;;;;;;;;12.70;94.30;;;;;;5044112;28;19946;-84
2023/05/19 02:30:10;;;;;;;;;;;12.70;93.60;;;;;;5052937;28;19909;-82
2023/05/19 02:32:36;;;;;;;;;;;12.70;93.50;;;;;;5053911;28;20283;-84
2023/05/19 02:35:02;;;;;;;;;;;12.70;93.40;;;;;;5050989;28;19988;-85
2023/05/19 02:37:28;;;;;;;;;;;12.80;92.90;;;;;;5041396;28;19904;-84
2023/05/19 02:39:54;;;;;;;;;;;12.80;92.50;;;;;;5034805;28;20386;-85
2023/05/19 02:42:20;;;;;;;;;;;12.80;92.60;;;;;;5049431;28;19909;-86
2023/05/19 02:44:45;;;;;;;;;;;12.80;92.30;;;;;;5054408;28;20382;-85
2023/05/19 02:47:12;;;;;;;;;;;12.90;92.10;;;;;;5055888;28;19921;-87
2023/05/19 02:49:37;;;;;;;;;;;13.00;91.90;;;;;;5058897;28;19996;-86
2023/05/19 02:52:04;;;;;;;;;;;12.90;91.50;;;;;;5055244;28;19905;-86
2023/05/19 02:54:30;;;;;;;;;;;13.00;91.30;;;;;;5058671;28;20007;-86
2023/05/19 02:56:56;;;;;;;;;;;13.00;91.50;;;;;;5077006;28;20023;-85
2023/05/19 02:59:22;;;;;;;;;;;13.00;91.50;;;;;;5095822;28;20372;-84
2023/05/19 03:01:47;;;;;;;;;;;13.00;91.20;;;;;;5077964;28;19911;-85
2023/05/19 03:04:13;;;;;;;;;;;13.10;91.00;;;;;;5092711;28;19934;-85
2023/05/19 03:06:39;;;;;;;;;;;13.10;90.40;;;;;;5102301;28;19908;-85
2023/05/19 03:09:05;;;;;;;;;;;13.10;90.50;;;;;;5102631;28;19952;-87
2023/05/19 03:11:30;;;;;;;;;;;13.10;90.60;;;;;;5100904;28;20361;-87
2023/05/19 03:13:57;;;;;;;;;;;13.20;90.30;;;;;;5097835;28;20360;-87
2023/05/19 03:16:23;;;;;;;;;;;13.10;90.10;;;;;;5081869;28;19904;-85
2023/05/19 03:18:49;;;;;;;;;;;13.00;90.00;;;;;;5096490;28;19915;-88
2023/05/19 03:21:15;;;;;;;;;;;12.90;90.20;;;;;;5091805;28;19908;-85
2023/05/19 03:23:41;;;;;;;;;;;12.90;90.50;;;;;;5091284;28;19992;-84
2023/05/19 03:26:06;;;;;;;;;;;13.00;90.50;;;;;;5097732;28;19904;-83
2023/05/19 03:28:32;;;;;;;;;;;13.00;90.40;;;;;;5092638;28;20022;-85
2023/05/19 03:30:58;;;;;;;;;;;12.90;90.40;;;;;;5094248;28;19904;-83
2023/05/19 03:33:24;;;;;;;;;;;12.80;90.40;;;;;;5096587;28;19911;-85
2023/05/19 03:35:51;;;;;;;;;;;12.80;90.60;;;;;;5088195;28;19912;-84
2023/05/19 03:38:17;;;;;;;;;;;12.70;90.90;;;;;;5081893;28;19912;-85
2023/05/19 03:40:43;;;;;;;;;;;12.60;91.00;;;;;;5096102;28;19905;-85
2023/05/19 03:43:09;;;;;;;;;;;12.60;91.40;;;;;;5101326;28;19915;-86
2023/05/19 03:45:35;;;;;;;;;;;12.60;91.60;;;;;;5086464;28;20285;-86
2023/05/19 03:48:01;;;;;;;;;;;12.50;91.70;;;;;;5112051;28;19971;-84
2023/05/19 03:50:27;;;;;;;;;;;12.50;91.80;;;;;;5110096;28;19908;-85
2023/05/19 03:52:54;;;;;;;;;;;12.50;91.90;;;;;;5111424;28;19904;-85
2023/05/19 03:55:20;;;;;;;;;;;12.50;92.00;;;;;;5101387;28;19904;-83
2023/05/19 03:57:46;;;;;;;;;;;12.50;92.10;;;;;;5102172;28;19904;-82
2023/05/19 04:00:12;;;;;;;;;;;12.50;92.10;;;;;;5099184;28;20463;-85
2023/05/19 04:02:37;;;;;;;;;;;12.50;92.10;;;;;;5101835;28;19949;-87
2023/05/19 04:05:03;;;;;;;;;;;12.50;92.40;;;;;;5084270;28;19951;-86
2023/05/19 04:07:29;;;;;;;;;;;12.40;92.50;;;;;;5081741;28;19915;-86
2023/05/19 04:09:56;;;;;;;;;;;12.40;92.60;;;;;;5097678;28;19908;-84
2023/05/19 04:12:21;;;;;;;;;;;12.30;92.80;;;;;;5077373;28;20250;-86
2023/05/19 04:14:47;;;;;;;;;;;12.20;93.10;;;;;;5097658;28;19911;-85
2023/05/19 04:17:14;;;;;;;;;;;12.10;93.50;;;;;;5098137;28;19904;-86
2023/05/19 04:19:39;;;;;;;;;;;12.00;93.60;;;;;;5104783;28;19911;-86
2023/05/19 04:22:05;;;;;;;;;;;12.00;93.80;;;;;;5106125;28;19904;-84
2023/05/19 04:24:32;;;;;;;;;;;12.00;93.80;;;;;;5095771;28;19976;-87
2023/05/19 04:27:01;;;;;;;;;;;12.10;93.90;;;;;;5107262;28;20025;-84
2023/05/19 04:29:31;;;;;;;;;;;12.20;93.90;;;;;;5109047;28;19949;-85
2023/05/19 04:31:57;;;;;;;;;;;12.20;93.70;;;;;;5099802;28;20233;-87
2023/05/19 04:34:22;;;;;;;;;;;12.30;93.70;;;;;;5097362;28;19904;-86
2023/05/19 04:36:48;;;;;;;;;;;12.30;93.60;;;;;;5096413;28;20420;-88
2023/05/19 04:39:14;;;;;;;;;;;12.30;93.60;;;;;;5072679;28;19971;-86
2023/05/19 04:41:43;;;;;;;;;;;12.30;93.60;;;;;;5096845;28;19947;-87
2023/05/19 04:44:09;;;;;;;;;;;12.40;93.60;;;;;;5089518;28;19919;-86
2023/05/19 04:46:35;;;;;;;;;;;12.40;93.60;;;;;;5091753;28;19914;-87
2023/05/19 04:49:01;;;;;;;;;;;12.40;93.50;;;;;;5114673;28;19912;-86
2023/05/19 04:51:30;;;;;;;;;;;12.40;93.40;;;;;;5111598;28;19904;-87
2023/05/19 04:53:56;;;;;;;;;;;12.50;93.50;;;;;;5104240;28;19944;-87
2023/05/19 04:56:22;;;;;;;;;;;12.50;93.50;;;;;;5103293;28;19904;-87
2023/05/19 04:58:48;;;;;;;;;;;12.50;93.60;;;;;;5083292;28;19926;-86
2023/05/19 05:01:14;;;;;;;;;;;12.50;93.70;;;;;;5100157;28;19904;-86
2023/05/19 05:03:43;;;;;;;;;;;12.40;93.60;;;;;;5105085;28;19916;-87
2023/05/19 05:06:10;;;;;;;;;;;12.30;93.70;;;;;;5097608;28;19912;-85
2023/05/19 05:08:38;;;;;;;;;;;12.20;93.80;;;;;;5083347;28;19920;-86
2023/05/19 05:11:04;;;;;;;;;;;12.10;93.90;;;;;;5084586;28;20345;-88
2023/05/19 05:13:30;;;;;;;;;;;12.10;94.20;;;;;;5079923;28;19953;-88
2023/05/19 05:15:56;;;;;;;;;;;12.10;94.40;;;;;;5081009;28;19920;-88
2023/05/19 05:18:23;;;;;;;;;;;12.00;94.50;;;;;;5080196;28;19911;-87
2023/05/19 05:20:49;;;;;;;;;;;12.00;94.90;;;;;;5099660;28;20253;-88
2023/05/19 05:23:15;;;;;;;;;;;11.90;95.30;;;;;;5100944;28;19987;-89
2023/05/19 05:25:41;;;;;;;;;;;11.80;95.50;;;;;;5088455;28;19972;-89
2023/05/19 05:28:07;;;;;;;;;;;11.80;95.70;;;;;;5097810;28;19904;-89
2023/05/19 05:30:33;;;;;;;;;;;11.80;96.00;;;;;;5100885;28;20380;-86
2023/05/19 05:32:59;;;;;;;;;;;11.80;96.00;;;;;;5118162;28;20053;-87
2023/05/19 05:35:25;;;;;;;;;;;11.90;96.00;;;;;;5112136;28;19892;-85
2023/05/19 05:37:51;;;;;;;;;;;11.90;96.00;;;;;;5092485;28;19957;-86
2023/05/19 05:40:16;;;;;;;;;;;12.00;96.00;;;;;;5108426;28;19961;-84
2023/05/19 05:42:42;;;;;;;;;;;12.10;96.10;;;;;;5094281;28;20069;-84
2023/05/19 05:45:08;;;;;;;;;;;12.10;96.00;;;;;;5091599;28;19912;-83
2023/05/19 05:47:36;;;;;;;;;;;12.10;95.90;;;;;;5087743;28;19911;-85
2023/05/19 05:50:03;;;;;;;;;;;12.20;95.90;;;;;;5092252;28;19910;-86
2023/05/19 05:52:29;;;;;;;;;;;12.20;95.70;;;;;;5098639;28;19908;-87
2023/05/19 05:54:55;;;;;;;;;;;12.30;95.70;;;;;;5094998;28;19911;-88
2023/05/19 05:57:21;;;;;;;;;;;12.40;95.70;;;;;;5073527;28;19904;-88
2023/05/19 05:59:49;;;;;;;;;;;12.60;95.60;;;;;;5091099;28;19912;-91
2023/05/19 06:02:16;;;;;;;;;;;12.70;95.40;;;;;;5099177;28;19967;-87
2023/05/19 06:04:42;;;;;;;;;;;12.70;95.10;;;;;;5120779;28;19912;-88
2023/05/19 06:07:09;;;;;;;;;;;12.70;95.00;;;;;;5090798;28;20074;-90
2023/05/19 06:09:35;;;;;;;;;;;12.70;95.00;;;;;;5107666;28;19908;-88
2023/05/19 06:12:01;;;;;;;;;;;12.80;94.90;;;;;;5111606;28;20317;-85
2023/05/19 06:14:26;;;;;;;;;;;12.90;94.80;;;;;;5111973;28;20004;-79
2023/05/19 06:16:52;;;;;;;;;;;12.90;94.50;;;;;;5113929;28;20268;-82
2023/05/19 06:19:18;;;;;;;;;;;13.00;94.50;;;;;;5108018;28;19943;-80
2023/05/19 06:21:45;;;;;;;;;;;13.00;94.50;;;;;;5100563;28;20008;-81
2023/05/19 06:24:11;;;;;;;;;;;13.10;94.40;;;;;;5112695;28;19963;-82
2023/05/19 06:26:37;;;;;;;;;;;13.20;94.30;;;;;;5099526;28;20326;-81
2023/05/19 06:29:03;;;;;;;;;;;13.30;94.50;;;;;;5113482;28;19915;-82
2023/05/19 06:31:30;;;;;;;;;;;13.40;94.00;;;;;;5094347;28;19957;-82
2023/05/19 06:33:55;;;;;;;;;;;13.50;93.60;;;;;;5113890;28;20416;-82
2023/05/19 06:36:21;;;;;;;;;;;13.60;93.40;;;;;;5104555;28;19904;-82
2023/05/19 06:38:47;;;;;;;;;;;13.80;93.30;;;;;;5095380;28;19910;-81
2023/05/19 06:41:12;;;;;;;;;;;14.00;93.10;;;;;;5113206;28;19904;-83
2023/05/19 06:43:39;;;;;;;;;;;14.10;92.60;;;;;;5111943;28;19912;-82
2023/05/19 06:46:05;;;;;;;;;;;14.20;92.50;;;;;;5113380;28;19956;-81
2023/05/19 06:48:30;;;;;;;;;;;14.40;92.40;;;;;;5111466;28;19911;-81
2023/05/19 06:50:56;;;;;;;;;;;14.50;92.10;;;;;;5112969;28;19932;-81
2023/05/19 06:53:22;;;;;;;;;;;14.50;91.80;;;;;;5111900;28;19911;-81
2023/05/19 06:55:51;;;;;;;;;;;14.60;91.60;;;;;;5107091;28;20249;-81
2023/05/19 06:58:16;;;;;;;;;;;14.60;91.30;;;;;;5106633;28;19912;-82
2023/05/19 07:00:42;;;;;;;;;;;14.60;91.00;;;;;;5117472;28;19930;-81
2023/05/19 07:03:08;;;;;;;;;;;14.50;90.80;;;;;;5114270;28;19910;-83
2023/05/19 07:05:34;;;;;;;;;;;14.60;91.00;;;;;;5109614;28;19955;-82
2023/05/19 07:08:00;;;;;;;;;;;14.80;90.70;;;;;;5080653;28;19927;-81
2023/05/19 07:10:26;;;;;;;;;;;15.00;90.30;;;;;;5094004;28;19908;-82
2023/05/19 07:12:52;;;;;;;;;;;15.10;89.70;;;;;;5093685;28;19911;-81
2023/05/19 07:15:17;;;;;;;;;;;15.10;88.80;;;;;;5093394;28;20276;-83
2023/05/19 07:17:43;;;;;;;;;;;15.00;88.20;;;;;;5098689;28;19904;-82
2023/05/19 07:20:09;;;;;;;;;;;15.00;88.60;;;;;;5096779;28;19904;-83
2023/05/19 07:22:35;;;;;;;;;;;15.00;88.10;;;;;;5097903;28;19977;-82
2023/05/19 07:25:01;;;;;;;;;;;15.00;88.20;;;;;;5086552;28;19920;-83
2023/05/19 07:27:26;;;;;;;;;;;15.10;87.90;;;;;;5077457;28;20316;-82
2023/05/19 07:29:53;;;;;;;;;;;15.20;87.40;;;;;;5104928;28;19908;-82
2023/05/19 07:32:19;;;;;;;;;;;15.30;85.50;;;;;;5099465;28;19904;-83
2023/05/19 07:34:44;;;;;;;;;;;15.30;85.00;;;;;;5099144;28;19911;-81
2023/05/19 07:37:10;;;;;;;;;;;15.30;85.30;;;;;;5104289;28;19919;-83
2023/05/19 07:39:36;;;;;;;;;;;15.30;85.10;;;;;;5089293;28;19904;-80
2023/05/19 07:42:02;;;;;;;;;;;15.40;84.40;;;;;;5112472;28;19904;-81
2023/05/19 07:44:30;;;;;;;;;;;15.30;84.50;;;;;;5082158;28;19912;-81
2023/05/19 07:46:55;;;;;;;;;;;15.40;84.20;;;;;;5103577;28;20621;-83
2023/05/19 07:49:21;;;;;;;;;;;15.40;83.20;;;;;;5093447;28;19908;-82
2023/05/19 07:51:47;;;;;;;;;;;15.50;83.20;;;;;;5093092;28;20329;-82
2023/05/19 07:54:13;;;;;;;;;;;15.60;83.00;;;;;;5092963;28;20376;-82
2023/05/19 07:56:38;;;;;;;;;;;15.80;82.50;;;;;;5092987;28;20269;-81
2023/05/19 07:59:04;;;;;;;;;;;16.00;82.10;;;;;;5074749;28;19904;-83
2023/05/19 08:01:31;;;;;;;;;;;16.30;81.10;;;;;;5099932;28;20422;-82
2023/05/19 08:03:57;;;;;;;;;;;16.50;79.60;;;;;;5076191;28;19908;-82
2023/05/19 08:06:24;;;;;;;;;;;16.50;79.20;;;;;;5068910;28;19912;-83
2023/05/19 08:08:50;;;;;;;;;;;16.70;79.20;;;;;;5086811;28;20324;-82
2023/05/19 08:11:15;;;;;;;;;;;16.90;78.00;;;;;;5095026;28;19965;-83
2023/05/19 08:13:41;;;;;;;;;;;17.10;76.50;;;;;;5081328;28;19904;-82
2023/05/19 08:16:07;;;;;;;;;;;17.30;75.20;;;;;;5084663;28;20094;-83
2023/05/19 08:18:32;;;;;;;;;;;17.70;74.90;;;;;;5086837;28;20423;-82
2023/05/19 08:20:58;;;;;;;;;;;18.10;70.20;;;;;;5093157;28;20273;-83
2023/05/19 08:23:24;;;;;;;;;;;18.30;69.20;;;;;;5093460;28;19911;-81
2023/05/19 08:25:50;;;;;;;;;;;18.90;68.80;;;;;;5095136;28;19915;-82
2023/05/19 08:28:15;;;;;;;;;;;19.80;67.50;;;;;;5096163;28;20414;-81
2023/05/19 08:30:41;;;;;;;;;;;21.40;63.70;;;;;;5096167;28;19912;-81
2023/05/19 08:33:07;;;;;;;;;;;23.20;59.50;;;;;;5082796;28;19919;-83
2023/05/19 08:35:33;;;;;;;;;;;24.60;50.80;;;;;;5077981;28;19998;-82
2023/05/19 08:37:58;;;;;;;;;;;25.30;51.20;;;;;;5097465;28;19990;-81
2023/05/19 08:40:26;;;;;;;;;;;25.50;46.30;;;;;;5080545;28;20291;-83
2023/05/19 08:42:52;;;;;;;;;;;25.70;48.70;;;;;;5096759;28;19998;-83
2023/05/19 08:45:18;;;;;;;;;;;27.10;47.20;;;;;;5096845;28;19912;-83
2023/05/19 08:47:45;;;;;;;;;;;27.70;42.40;;;;;;5096088;28;19912;-83
2023/05/19 08:50:13;;;;;;;;;;;28.30;41.40;;;;;;5090234;28;19912;-82
2023/05/19 08:52:48;;;;;;;;;;;29.20;40.30;;;;;;5097878;28;19908;-83
2023/05/19 08:55:35;;;;;;;;;;;29.60;39.10;;;;;;5095512;28;19908;-81
2023/05/19 08:58:02;;;;;;;;;;;30.00;39.20;;;;;;5096423;28;20309;-84
2023/05/19 09:00:28;;;;;;;;;;;30.80;38.60;;;;;;5077543;28;19904;-83
2023/05/19 09:02:54;;;;;;;;;;;31.60;36.30;;;;;;5097515;28;19911;-82
2023/05/19 09:05:20;;;;;;;;;;;32.10;36.20;;;;;;5087795;28;19920;-81
2023/05/19 09:07:47;;;;;;;;;;;32.00;35.60;;;;;;5086634;28;19920;-84
2023/05/19 09:10:13;;;;;;;;;;;32.30;35.70;;;;;;5102836;28;19904;-83
2023/05/19 09:12:44;;;;;;;;;;;32.50;34.60;;;;;;5098399;28;19904;-85
2023/05/19 09:15:10;;;;;;;;;;;32.50;34.10;;;;;;5097205;28;19918;-83
2023/05/19 09:17:36;;;;;;;;;;;32.10;34.60;;;;;;5097171;28;19904;-84
2023/05/19 09:20:04;;;;;;;;;;;31.90;32.60;;;;;;5081053;28;19949;-83
2023/05/19 09:22:34;;;;;;;;;;;30.70;32.60;;;;;;5087239;28;20357;-83
2023/05/19 09:25:00;;;;;;;;;;;29.80;34.20;;;;;;5099357;28;19916;-82
2023/05/19 09:27:26;;;;;;;;;;;29.90;35.20;;;;;;5095425;28;20277;-83
2023/05/19 09:29:51;;;;;;;;;;;30.20;33.90;;;;;;5096244;28;19904;-84
2023/05/19 09:32:24;;;;;;;;;;;30.40;34.40;;;;;;5087367;28;20352;-86
2023/05/19 09:34:52;;;;;;;;;;;31.30;34.60;;;;;;5076535;28;19908;-84
2023/05/19 09:37:20;;;;;;;;;;;32.00;34.30;;;;;;5080601;28;19967;-84
2023/05/19 09:39:50;;;;;;;;;;;32.00;33.30;;;;;;5106017;28;19954;-82
2023/05/19 09:42:22;;;;;;;;;;;31.80;33.30;;;;;;5105663;28;19908;-83
2023/05/19 09:44:50;;;;;;;;;;;32.30;33.20;;;;;;5100812;28;19912;-82
2023/05/19 09:47:16;;;;;;;;;;;32.20;32.40;;;;;;5112847;28;19971;-84
2023/05/19 09:49:45;;;;;;;;;;;31.80;32.50;;;;;;5102014;28;20000;-84
2023/05/19 09:52:14;;;;;;;;;;;30.60;32.60;;;;;;5099083;28;19908;-84
2023/05/19 09:54:40;;;;;;;;;;;29.80;33.40;;;;;;5097137;28;19946;-81
2023/05/19 09:57:07;;;;;;;;;;;28.80;33.90;;;;;;5095724;28;19908;-83
2023/05/19 09:59:33;;;;;;;;;;;28.80;34.20;;;;;;5077504;28;20257;-82
2023/05/19 10:01:59;;;;;;;;;;;28.10;34.50;;;;;;5094713;28;19911;-84
2023/05/19 10:04:27;;;;;;;;;;;27.70;35.20;;;;;;5103992;28;20281;-83
2023/05/19 10:06:53;;;;;;;;;;;27.70;34.40;;;;;;5083536;28;19918;-81
2023/05/19 10:09:22;;;;;;;;;;;27.20;35.00;;;;;;5091085;28;19904;-81
2023/05/19 10:11:50;;;;;;;;;;;26.80;35.40;;;;;;5094447;28;19904;-83
2023/05/19 10:14:16;;;;;;;;;;;26.80;35.10;;;;;;5094832;28;19934;-83
2023/05/19 10:16:45;;;;;;;;;;;26.60;35.70;;;;;;5103446;28;19908;-82
2023/05/19 10:19:11;;;;;;;;;;;26.60;35.20;;;;;;5110595;28;19915;-81
2023/05/19 10:21:37;;;;;;;;;;;26.00;35.30;;;;;;5095472;28;19904;-82
2023/05/19 10:24:03;;;;;;;;;;;25.20;36.10;;;;;;5076876;28;19912;-82
2023/05/19 10:26:29;;;;;;;;;;;24.10;37.10;;;;;;5098648;28;19965;-83
2023/05/19 10:28:56;;;;;;;;;;;23.10;37.90;;;;;;5079676;28;19942;-85
2023/05/19 10:31:22;;;;;;;;;;;22.50;39.10;;;;;;5106796;28;19904;-82
2023/05/19 10:34:06;;;;;;;;;;;21.90;40.10;;;;;;5101976;28;19930;-83
2023/05/19 10:36:35;;;;;;;;;;;21.80;40.50;;;;;;5097424;28;19958;-81
2023/05/19 10:39:06;;;;;;;;;;;21.50;41.00;;;;;;5094329;28;19912;-81
2023/05/19 10:41:45;;;;;;;;;;;21.40;41.60;;;;;;5095767;28;20388;-83
2023/05/19 10:44:26;;;;;;;;;;;21.20;41.70;;;;;;5095164;28;20520;-84
2023/05/19 10:46:52;;;;;;;;;;;20.90;42.20;;;;;;5094235;28;19910;-83
2023/05/19 10:49:21;;;;;;;;;;;20.70;42.40;;;;;;5094002;28;20432;-82
2023/05/19 10:51:47;;;;;;;;;;;20.70;42.60;;;;;;5104517;28;19983;-82
2023/05/19 10:54:15;;;;;;;;;;;20.60;42.70;;;;;;5096464;28;20341;-82
2023/05/19 10:56:47;;;;;;;;;;;20.80;43.00;;;;;;5107524;28;19892;-82
2023/05/19 10:59:29;;;;;;;;;;;20.70;43.10;;;;;;5112994;28;19904;-81
2023/05/19 11:01:55;;;;;;;;;;;20.50;42.90;;;;;;5100369;28;20285;-82
2023/05/19 11:04:37;;;;;;;;;;;20.60;43.30;;;;;;5093919;28;19941;-82
2023/05/19 11:07:03;;;;;;;;;;;20.50;43.00;;;;;;5083731;28;19919;-81
2023/05/19 11:09:32;;;;;;;;;;;20.40;43.30;;;;;;5096818;28;19904;-81
2023/05/19 11:12:02;;;;;;;;;;;20.00;43.70;;;;;;5096043;28;19911;-82
2023/05/19 11:14:28;;;;;;;;;;;19.90;44.20;;;;;;5105435;28;19915;-83
2023/05/19 11:16:56;;;;;;;;;;;19.70;44.60;;;;;;5111831;28;19908;-83
2023/05/19 11:19:29;;;;;;;;;;;19.50;44.80;;;;;;5096964;28;20253;-82
2023/05/19 11:21:56;;;;;;;;;;;19.40;45.00;;;;;;5102215;28;19926;-83
2023/05/19 11:24:40;;;;;;;;;;;19.40;45.20;;;;;;5101071;28;19912;-83
2023/05/19 11:27:18;;;;;;;;;;;19.70;45.50;;;;;;5099475;28;19969;-82
2023/05/19 11:29:44;;;;;;;;;;;19.70;45.00;;;;;;5098613;28;20003;-83
2023/05/19 11:32:11;;;;;;;;;;;19.80;45.10;;;;;;5078059;28;19946;-83
2023/05/19 11:34:37;;;;;;;;;;;19.80;44.80;;;;;;5070811;28;19998;-82
2023/05/19 11:37:03;;;;;;;;;;;19.90;44.80;;;;;;5093606;28;19966;-82
2023/05/19 11:39:30;;;;;;;;;;;20.00;44.80;;;;;;5093087;28;19931;-80
2023/05/19 11:41:56;;;;;;;;;;;20.20;44.70;;;;;;5093614;28;19904;-83
2023/05/19 11:44:22;;;;;;;;;;;20.20;44.70;;;;;;5075092;28;20380;-82
2023/05/19 11:46:47;;;;;;;;;;;20.20;44.90;;;;;;5093625;28;19926;-80
2023/05/19 11:49:14;;;;;;;;;;;20.20;44.90;;;;;;5093347;28;19904;-84
2023/05/19 11:51:42;;;;;;;;;;;20.20;44.70;;;;;;5094045;28;19914;-84
2023/05/19 11:54:10;;;;;;;;;;;20.10;44.80;;;;;;5075313;28;19904;-80
2023/05/19 11:56:39;;;;;;;;;;;20.20;44.90;;;;;;5077926;28;19908;-82
2023/05/19 11:59:05;;;;;;;;;;;20.30;44.50;;;;;;5073835;28;19996;-81
2023/05/19 12:01:32;;;;;;;;;;;20.30;44.40;;;;;;5089127;28;19951;-81
2023/05/19 12:03:57;;;;;;;;;;;20.30;44.50;;;;;;5097632;28;19915;-82
2023/05/19 12:06:24;;;;;;;;;;;20.40;44.10;;;;;;5073180;28;19904;-83
2023/05/19 12:08:50;;;;;;;;;;;20.30;44.10;;;;;;5071573;28;19916;-83
2023/05/19 12:11:17;;;;;;;;;;;20.30;43.80;;;;;;5079282;28;19907;-84
2023/05/19 12:13:43;;;;;;;;;;;20.30;43.90;;;;;;5079977;28;20376;-82
2023/05/19 12:16:08;;;;;;;;;;;20.20;43.40;;;;;;5100334;28;19912;-82
2023/05/19 12:18:37;;;;;;;;;;;20.00;43.30;;;;;;5097638;28;19904;-82
2023/05/19 12:21:03;;;;;;;;;;;19.90;43.50;;;;;;5099937;28;19904;-84
2023/05/19 12:23:29;;;;;;;;;;;19.80;43.30;;;;;;5107392;28;19903;-82
2023/05/19 12:25:56;;;;;;;;;;;19.70;44.40;;;;;;5098212;28;20377;-82
2023/05/19 12:28:21;;;;;;;;;;;19.70;43.00;;;;;;5098012;28;20024;-82
2023/05/19 12:30:50;;;;;;;;;;;19.60;43.10;;;;;;5096917;28;20527;-82
2023/05/19 12:33:17;;;;;;;;;;;19.50;43.00;;;;;;5098097;28;19958;-82
2023/05/19 12:35:43;;;;;;;;;;;19.40;43.00;;;;;;5096991;28;20268;-83
2023/05/19 12:38:09;;;;;;;;;;;19.50;43.50;;;;;;5096552;28;19904;-82
2023/05/19 12:40:35;;;;;;;;;;;19.50;42.80;;;;;;5096449;28;19904;-84
2023/05/19 12:43:01;;;;;;;;;;;19.40;42.90;;;;;;5096460;28;19908;-81
2023/05/19 12:45:27;;;;;;;;;;;19.40;43.30;;;;;;5096988;28;19918;-82
2023/05/19 12:47:53;;;;;;;;;;;19.40;43.20;;;;;;5079639;28;19958;-83
2023/05/19 12:50:19;;;;;;;;;;;19.60;42.80;;;;;;5089437;28;19904;-84
2023/05/19 12:52:45;;;;;;;;;;;19.60;42.20;;;;;;5088308;28;20005;-83
2023/05/19 12:55:11;;;;;;;;;;;19.60;42.00;;;;;;5092371;28;19973;-83
2023/05/19 12:57:37;;;;;;;;;;;19.40;42.30;;;;;;5096722;28;20007;-81
2023/05/19 13:00:09;;;;;;;;;;;19.40;42.50;;;;;;5096693;28;19926;-84
2023/05/19 13:02:53;;;;;;;;;;;19.40;42.50;;;;;;5097171;28;19904;-83
2023/05/19 13:05:19;;;;;;;;;;;19.40;43.10;;;;;;5105982;28;19931;-85
2023/05/19 13:07:58;;;;;;;;;;;19.40;43.00;;;;;;5093055;28;19944;-82
2023/05/19 13:10:26;;;;;;;;;;;19.40;43.20;;;;;;5110759;28;19911;-82
2023/05/19 13:12:52;;;;;;;;;;;19.60;43.40;;;;;;5101388;28;19908;-83
2023/05/19 13:15:19;;;;;;;;;;;19.70;43.40;;;;;;5104946;28;19923;-82
2023/05/19 13:17:45;;;;;;;;;;;19.70;43.40;;;;;;5079677;28;20037;-82
2023/05/19 13:20:11;;;;;;;;;;;19.70;43.30;;;;;;5097780;28;19948;-82
2023/05/19 13:22:37;;;;;;;;;;;19.60;43.10;;;;;;5083590;28;19904;-83
2023/05/19 13:25:02;;;;;;;;;;;19.30;42.90;;;;;;5077444;28;19977;-83
2023/05/19 13:27:28;;;;;;;;;;;19.10;42.80;;;;;;5096265;28;19946;-83
2023/05/19 13:29:54;;;;;;;;;;;19.00;43.20;;;;;;5097281;28;19975;-84
2023/05/19 13:32:19;;;;;;;;;;;19.10;43.30;;;;;;5089624;28;19908;-81
2023/05/19 13:34:45;;;;;;;;;;;19.10;43.10;;;;;;5098129;28;19911;-82
2023/05/19 13:37:11;;;;;;;;;;;19.00;43.00;;;;;;5096055;28;19911;-83
2023/05/19 13:39:37;;;;;;;;;;;19.30;43.30;;;;;;5108227;28;19912;-80
2023/05/19 13:42:03;;;;;;;;;;;19.70;43.30;;;;;;5095163;28;20040;-83
2023/05/19 13:44:29;;;;;;;;;;;20.10;42.90;;;;;;5094715;28;20399;-81
2023/05/19 13:46:55;;;;;;;;;;;20.30;41.70;;;;;;5095110;28;19987;-82
2023/05/19 13:49:21;;;;;;;;;;;20.40;42.00;;;;;;5077024;28;19959;-83
2023/05/19 13:51:47;;;;;;;;;;;20.70;41.90;;;;;;5095026;28;19904;-83
2023/05/19 13:54:13;;;;;;;;;;;20.80;41.40;;;;;;5096004;28;19904;-81
2023/05/19 13:56:38;;;;;;;;;;;21.00;41.60;;;;;;5101068;28;20383;-84
2023/05/19 13:59:04;;;;;;;;;;;21.20;41.00;;;;;;5096052;28;19946;-83
2023/05/19 14:01:30;;;;;;;;;;;21.40;40.90;;;;;;5095980;28;19908;-81
2023/05/19 14:03:55;;;;;;;;;;;21.20;40.00;;;;;;5097152;28;19908;-82
2023/05/19 14:06:21;;;;;;;;;;;20.80;40.20;;;;;;5102201;28;19939;-81
2023/05/19 14:08:47;;;;;;;;;;;20.50;40.60;;;;;;5108004;28;19912;-82
2023/05/19 14:11:17;;;;;;;;;;;20.30;41.10;;;;;;5102241;28;19908;-82
2023/05/19 14:13:42;;;;;;;;;;;20.10;41.40;;;;;;5094833;28;19904;-82
2023/05/19 14:16:08;;;;;;;;;;;20.10;41.80;;;;;;5104341;28;19966;-82